createdAt,value
2022-08-22T00:02:19.452Z,26.90
2022-08-22T00:02:48.679Z,38.33
2022-08-22T00:02:49.335Z,47.03
2022-08-22T00:03:00.353Z,39.83
2022-08-22T00:03:16.332Z,36.63
2022-08-22T00:04:58.412Z,26.20
2022-08-22T00:07:33.619Z,28.27
2022-08-22T00:10:24.977Z,29.58
2022-08-22T00:13:18.446Z,32.95
2022-08-22T00:15:54.763Z,27.35
2022-08-22T00:18:31.718Z,31.08
2022-08-22T00:21:01.358Z,39.55
2022-08-22T00:23:28.860Z,30.08
2022-08-22T00:26:06.191Z,33.95
2022-08-22T00:29:01.431Z,33.47
2022-08-22T00:31:39.886Z,27.73
2022-08-22T00:34:24.467Z,25.35
2022-08-22T00:37:07.127Z,29.23
2022-08-22T00:39:41.119Z,33.38
2022-08-22T00:42:32.376Z,28.67
2022-08-22T00:45:20.186Z,25.83
2022-08-22T00:48:14.351Z,22.73
2022-08-22T00:51:13.096Z,33.63
2022-08-22T00:54:17.433Z,21.50
2022-08-22T00:56:45.198Z,28.85
2022-08-22T00:59:47.981Z,32.10
2022-08-22T01:02:21.699Z,38.50
2022-08-22T01:05:03.348Z,20.02
2022-08-22T01:07:43.250Z,25.00
2022-08-22T01:10:40.300Z,19.45
2022-08-22T01:13:31.869Z,22.80
2022-08-22T01:16:08.367Z,22.42
2022-08-22T01:18:50.213Z,26.02
2022-08-22T01:21:25.542Z,25.08
2022-08-22T01:24:36.511Z,33.75
2022-08-22T01:27:33.144Z,27.40
2022-08-22T01:30:03.629Z,20.27
2022-08-22T01:32:31.222Z,23.60
2022-08-22T01:35:03.946Z,24.45
2022-08-22T01:37:49.357Z,29.02
2022-08-22T01:43:04.570Z,31.08
2022-08-22T01:45:43.309Z,19.38
2022-08-22T01:48:13.220Z,29.70
2022-08-22T01:50:46.637Z,18.77
2022-08-22T01:53:24.636Z,25.27
2022-08-22T01:55:54.230Z,25.00
2022-08-22T01:58:29.913Z,18.40
2022-08-22T02:01:17.815Z,28.52
2022-08-22T02:04:01.524Z,21.00
2022-08-22T02:06:33.882Z,29.40
2022-08-22T02:09:27.545Z,22.83
2022-08-22T02:12:21.829Z,24.40
2022-08-22T02:15:14.770Z,14.45
2022-08-22T02:18:01.056Z,27.08
2022-08-22T02:20:48.159Z,32.53
2022-08-22T02:23:52.365Z,25.13
2022-08-22T02:26:44.250Z,22.42
2022-08-22T02:29:14.795Z,22.10
2022-08-22T02:31:48.177Z,19.73
2022-08-22T02:34:32.323Z,21.02
2022-08-22T02:37:22.266Z,20.67
2022-08-22T02:40:13.134Z,22.50
2022-08-22T02:42:50.715Z,22.52
2022-08-22T02:45:41.692Z,26.25
2022-08-22T02:48:39.392Z,21.92
2022-08-22T02:51:30.113Z,24.63
2022-08-22T02:54:08.978Z,19.60
2022-08-22T02:56:41.199Z,28.55
2022-08-22T02:59:16.847Z,17.00
2022-08-22T03:01:46.281Z,21.80
2022-08-22T03:04:33.439Z,22.30
2022-08-22T03:07:21.189Z,23.40
2022-08-22T03:09:56.762Z,21.73
2022-08-22T03:12:52.754Z,27.67
2022-08-22T03:15:34.591Z,11.93
2022-08-22T03:18:07.277Z,17.48
2022-08-22T03:20:46.043Z,17.63
2022-08-22T03:23:36.951Z,20.33
2022-08-22T03:26:20.603Z,19.98
2022-08-22T03:29:03.549Z,23.85
2022-08-22T03:31:31.406Z,17.13
2022-08-22T03:34:26.622Z,17.88
2022-08-22T03:37:18.750Z,18.75
2022-08-22T03:39:51.420Z,16.35
2022-08-22T03:42:22.333Z,13.68
2022-08-22T03:45:21.466Z,26.48
2022-08-22T03:47:57.988Z,23.52
2022-08-22T03:50:24.672Z,25.23
2022-08-22T03:53:19.013Z,20.05
2022-08-22T03:56:14.046Z,21.17
2022-08-22T04:02:55.888Z,15.00
2022-08-22T04:05:34.718Z,15.27
2022-08-22T04:08:23.060Z,14.45
2022-08-22T04:11:12.251Z,20.00
2022-08-22T04:13:41.769Z,15.45
2022-08-22T04:16:11.314Z,20.50
2022-08-22T04:18:56.385Z,17.27
2022-08-22T04:22:00.971Z,29.20
2022-08-22T04:25:15.215Z,17.50
2022-08-22T04:27:49.710Z,20.40
2022-08-22T04:30:16.298Z,19.55
2022-08-22T04:32:56.963Z,15.55
2022-08-22T04:35:46.519Z,19.98
2022-08-22T04:38:40.268Z,15.68
2022-08-22T04:41:17.275Z,14.10
2022-08-22T04:43:52.887Z,23.23
2022-08-22T04:46:42.273Z,19.77
2022-08-22T04:49:32.220Z,16.90
2022-08-22T04:52:35.745Z,23.73
2022-08-22T04:55:19.654Z,18.85
2022-08-22T04:58:06.562Z,20.80
2022-08-22T05:00:52.495Z,12.25
2022-08-22T05:03:21.901Z,19.67
2022-08-22T05:05:49.751Z,16.85
2022-08-22T05:08:21.670Z,14.23
2022-08-22T05:10:49.654Z,11.60
2022-08-22T05:13:18.829Z,15.10
2022-08-22T05:15:51.275Z,17.33
2022-08-22T05:18:29.652Z,13.75
2022-08-22T05:20:59.569Z,11.75
2022-08-22T05:23:44.534Z,21.63
2022-08-22T05:26:12.549Z,16.88
2022-08-22T05:28:40.742Z,21.30
2022-08-22T05:31:11.874Z,13.07
2022-08-22T05:33:46.426Z,16.88
2022-08-22T05:36:20.585Z,14.60
2022-08-22T05:38:56.438Z,20.02
2022-08-22T05:41:31.873Z,15.68
2022-08-22T05:43:58.943Z,17.15
2022-08-22T05:46:41.034Z,17.45
2022-08-22T05:49:22.962Z,17.20
2022-08-22T05:52:15.929Z,15.35
2022-08-22T05:54:59.926Z,17.95
2022-08-22T05:57:33.330Z,20.58
2022-08-22T06:00:11.067Z,21.38
2022-08-22T06:03:04.302Z,23.67
2022-08-22T06:05:33.480Z,26.45
2022-08-22T06:08:07.820Z,21.52
2022-08-22T06:10:55.076Z,21.30
2022-08-22T06:13:30.230Z,26.55
2022-08-22T06:16:12.097Z,21.15
2022-08-22T06:18:40.599Z,14.75
2022-08-22T06:21:11.587Z,22.60
2022-08-22T06:23:51.960Z,22.95
2022-08-22T06:26:20.184Z,9.50
2022-08-22T06:28:55.443Z,15.07
2022-08-22T06:31:45.353Z,21.88
2022-08-22T06:34:18.529Z,13.15
2022-08-22T06:36:49.111Z,14.40
2022-08-22T06:39:24.969Z,17.60
2022-08-22T06:42:28.327Z,20.92
2022-08-22T06:45:04.405Z,20.13
2022-08-22T06:47:37.385Z,26.02
2022-08-22T06:50:13.609Z,19.13
2022-08-22T06:52:52.285Z,14.38
2022-08-22T06:55:19.376Z,20.92
2022-08-22T06:57:57.104Z,22.73
2022-08-22T07:00:24.604Z,22.52
2022-08-22T07:03:09.752Z,22.70
2022-08-22T07:08:12.100Z,20.50
2022-08-22T07:10:43.561Z,14.27
2022-08-22T07:13:15.618Z,19.17
2022-08-22T07:15:43.122Z,14.93
2022-08-22T07:18:18.487Z,14.02
2022-08-22T07:20:50.326Z,20.02
2022-08-22T07:23:36.688Z,16.63
2022-08-22T07:26:17.354Z,17.27
2022-08-22T07:29:32.594Z,23.52
2022-08-22T07:32:09.735Z,17.00
2022-08-22T07:34:53.525Z,21.52
2022-08-22T07:37:29.391Z,11.18
2022-08-22T07:39:58.445Z,19.17
2022-08-22T07:42:35.978Z,18.85
2022-08-22T07:45:05.329Z,18.77
2022-08-22T07:48:04.207Z,24.23
2022-08-22T07:50:33.951Z,13.18
2022-08-22T07:53:08.980Z,12.05
2022-08-22T07:55:41.099Z,20.08
2022-08-22T07:58:17.052Z,20.13
2022-08-22T08:00:45.153Z,21.42
2022-08-22T08:03:12.355Z,28.92
2022-08-22T08:05:41.785Z,19.10
2022-08-22T08:08:30.997Z,13.90
2022-08-22T08:10:59.991Z,13.90
2022-08-22T08:13:31.398Z,12.25
2022-08-22T08:15:59.071Z,17.23
2022-08-22T08:18:28.040Z,19.65
2022-08-22T08:21:00.408Z,18.63
2022-08-22T08:23:29.840Z,20.77
2022-08-22T08:26:03.967Z,27.33
2022-08-22T08:28:38.050Z,23.52
2022-08-22T08:31:31.981Z,18.08
2022-08-22T08:34:04.015Z,18.42
2022-08-22T08:37:01.474Z,20.63
2022-08-22T08:39:38.550Z,24.33
2022-08-22T08:42:05.128Z,19.92
2022-08-22T08:44:43.680Z,16.17
2022-08-22T08:47:28.375Z,16.60
2022-08-22T08:50:32.909Z,18.00
2022-08-22T08:53:03.423Z,15.35
2022-08-22T08:56:19.594Z,19.10
2022-08-22T08:59:44.053Z,18.20
2022-08-22T09:02:23.645Z,16.52
2022-08-22T09:05:27.675Z,16.85
2022-08-22T09:08:13.755Z,13.35
2022-08-22T09:11:15.747Z,18.40
2022-08-22T09:14:15.147Z,15.73
2022-08-22T09:16:51.572Z,19.95
2022-08-22T09:19:55.825Z,23.15
2022-08-22T09:23:04.146Z,16.85
2022-08-22T09:26:08.816Z,13.95
2022-08-22T09:28:40.922Z,14.05
2022-08-22T09:31:33.087Z,20.05
2022-08-22T09:34:37.981Z,21.35
2022-08-22T09:37:14.087Z,14.50
2022-08-22T09:40:08.209Z,15.70
2022-08-22T09:42:50.111Z,21.52
2022-08-22T09:45:25.740Z,15.15
2022-08-22T09:48:21.712Z,15.27
2022-08-22T09:51:08.286Z,20.40
2022-08-22T09:54:18.895Z,18.30
2022-08-22T09:57:03.962Z,22.20
2022-08-22T10:02:25.659Z,25.58
2022-08-22T10:05:07.901Z,29.75
2022-08-22T10:07:51.530Z,31.17
2022-08-22T10:13:11.856Z,27.67
2022-08-22T10:16:19.396Z,28.42
2022-08-22T10:19:07.115Z,35.45
2022-08-22T10:21:43.707Z,25.48
2022-08-22T10:24:43.778Z,30.70
2022-08-22T10:27:18.282Z,35.08
2022-08-22T10:30:17.880Z,33.60
2022-08-22T10:32:44.755Z,37.42
2022-08-22T10:35:28.224Z,30.48
2022-08-22T10:38:10.789Z,34.67
2022-08-22T10:40:44.095Z,36.13
2022-08-22T10:43:46.098Z,41.65
2022-08-22T10:46:16.177Z,31.70
2022-08-22T10:48:46.552Z,36.50
2022-08-22T10:51:22.879Z,34.80
2022-08-22T10:53:55.906Z,30.88
2022-08-22T10:56:32.199Z,40.85
2022-08-22T10:59:17.591Z,32.95
2022-08-22T11:02:31.920Z,29.98
2022-08-22T11:05:13.956Z,33.35
2022-08-22T11:07:57.916Z,35.33
2022-08-22T11:10:28.140Z,25.73
2022-08-22T11:13:16.116Z,37.17
2022-08-22T11:16:11.561Z,38.90
2022-08-22T11:19:04.959Z,38.90
2022-08-22T11:22:29.353Z,38.30
2022-08-22T11:25:15.762Z,40.33
2022-08-22T11:28:16.407Z,36.65
2022-08-22T11:30:58.099Z,35.20
2022-08-22T11:33:46.467Z,43.17
2022-08-22T11:36:17.421Z,54.25
2022-08-22T11:38:54.196Z,46.67
2022-08-22T11:41:35.797Z,42.25
2022-08-22T11:44:09.043Z,37.95
2022-08-22T11:46:41.345Z,40.60
2022-08-22T11:49:32.623Z,43.58
2022-08-22T11:52:18.662Z,52.30
2022-08-22T11:55:13.246Z,49.72
2022-08-22T11:57:51.421Z,41.47
2022-08-22T12:00:25.083Z,53.70
2022-08-22T12:03:23.691Z,51.43
2022-08-22T12:06:08.581Z,51.70
2022-08-22T12:08:40.872Z,58.20
2022-08-22T12:11:11.806Z,50.90
2022-08-22T12:13:45.949Z,51.15
2022-08-22T12:16:27.386Z,60.08
2022-08-22T12:18:55.453Z,60.00
2022-08-22T12:21:25.067Z,42.80
2022-08-22T12:24:35.655Z,54.08
2022-08-22T12:27:28.735Z,48.60
2022-08-22T12:30:33.191Z,47.78
2022-08-22T12:33:21.910Z,48.75
2022-08-22T12:36:17.862Z,60.22
2022-08-22T12:41:37.510Z,54.80
2022-08-22T12:44:18.233Z,44.47
2022-08-22T12:47:04.338Z,39.08
2022-08-22T12:50:04.890Z,62.67
2022-08-22T12:52:34.464Z,51.28
2022-08-22T12:55:29.228Z,56.65
2022-08-22T12:58:02.154Z,54.92
2022-08-22T13:00:41.793Z,55.75
2022-08-22T13:03:12.054Z,49.17
2022-08-22T13:05:40.976Z,65.10
2022-08-22T13:08:12.712Z,59.88
2022-08-22T13:10:44.785Z,65.28
2022-08-22T13:13:16.643Z,62.92
2022-08-22T13:16:01.708Z,59.55
2022-08-22T13:18:39.715Z,43.50
2022-08-22T13:21:15.376Z,57.30
2022-08-22T13:23:45.697Z,52.83
2022-08-22T13:26:33.604Z,51.70
2022-08-22T13:29:39.607Z,51.38
2022-08-22T13:32:04.527Z,68.93
2022-08-22T13:34:44.381Z,53.05
2022-08-22T13:37:17.009Z,59.45
2022-08-22T13:39:46.650Z,44.22
2022-08-22T13:42:30.905Z,48.58
2022-08-22T13:45:02.291Z,47.25
2022-08-22T13:47:32.434Z,51.33
2022-08-22T13:50:10.300Z,41.25
2022-08-22T13:52:42.695Z,43.40
2022-08-22T13:55:32.601Z,41.33
2022-08-22T13:58:28.619Z,42.80
2022-08-22T14:01:04.584Z,38.08
2022-08-22T14:04:17.523Z,48.88
2022-08-22T14:07:11.787Z,37.78
2022-08-22T14:09:54.530Z,35.88
2022-08-22T14:12:33.749Z,46.08
2022-08-22T14:15:23.367Z,43.97
2022-08-22T14:17:54.973Z,42.22
2022-08-22T14:20:32.265Z,41.83
2022-08-22T14:23:04.628Z,38.63
2022-08-22T14:25:36.106Z,36.40
2022-08-22T14:28:09.044Z,32.22
2022-08-22T14:30:54.326Z,32.13
2022-08-22T14:33:28.762Z,39.95
2022-08-22T14:35:57.804Z,44.92
2022-08-22T14:38:30.269Z,42.15
2022-08-22T14:41:25.067Z,36.22
2022-08-22T14:44:04.982Z,45.13
2022-08-22T14:47:03.835Z,45.05
2022-08-22T14:49:35.922Z,42.75
2022-08-22T14:52:19.599Z,37.97
2022-08-22T14:54:46.812Z,36.97
2022-08-22T14:57:19.825Z,38.83
2022-08-22T14:59:50.290Z,42.17
2022-08-22T15:02:30.224Z,33.80
2022-08-22T15:05:01.609Z,45.10
2022-08-22T15:07:32.098Z,46.55
2022-08-22T15:10:03.099Z,38.60
2022-08-22T15:12:40.743Z,33.72
2022-08-22T15:15:26.732Z,37.95
2022-08-22T15:17:53.370Z,39.58
2022-08-22T15:20:38.212Z,42.78
2022-08-22T15:23:19.378Z,42.70
2022-08-22T15:25:57.930Z,34.58
2022-08-22T15:28:24.933Z,33.40
2022-08-22T15:30:54.073Z,35.95
2022-08-22T15:33:29.401Z,34.17
2022-08-22T15:36:08.531Z,42.33
2022-08-22T15:38:39.435Z,43.30
2022-08-22T15:41:36.795Z,32.90
2022-08-22T15:44:14.818Z,32.03
2022-08-22T15:47:00.463Z,45.35
2022-08-22T15:49:32.544Z,38.38
2022-08-22T15:52:00.900Z,44.30
2022-08-22T15:54:30.591Z,41.42
2022-08-22T15:57:10.152Z,56.75
2022-08-22T15:59:54.425Z,34.33
2022-08-22T16:02:30.519Z,38.70
2022-08-22T16:05:03.929Z,35.70
2022-08-22T16:07:43.806Z,42.10
2022-08-22T16:10:27.489Z,38.55
2022-08-22T16:13:13.181Z,41.90
2022-08-22T16:15:54.112Z,54.22
2022-08-22T16:18:39.231Z,45.38
2022-08-22T16:21:10.987Z,48.35
2022-08-22T16:23:49.837Z,38.15
2022-08-22T16:26:18.469Z,42.20
2022-08-22T16:28:58.308Z,38.65
2022-08-22T16:31:38.874Z,50.67
2022-08-22T16:34:20.582Z,42.03
2022-08-22T16:37:18.114Z,57.05
2022-08-22T16:40:04.640Z,40.33
2022-08-22T16:42:35.308Z,46.05
2022-08-22T16:45:18.302Z,52.80
2022-08-22T16:48:02.140Z,51.00
2022-08-22T16:50:33.759Z,42.15
2022-08-22T16:53:13.854Z,51.05
2022-08-22T16:56:05.460Z,42.58
2022-08-22T16:59:19.754Z,52.28
2022-08-22T17:01:59.353Z,38.25
2022-08-22T17:04:38.070Z,51.55
2022-08-22T17:07:14.382Z,46.08
2022-08-22T17:09:49.309Z,48.47
2022-08-22T17:12:15.808Z,46.53
2022-08-22T17:15:00.955Z,47.22
2022-08-22T17:20:24.716Z,44.65
2022-08-22T17:23:20.909Z,64.38
2022-08-22T17:26:19.626Z,56.97
2022-08-22T17:29:21.050Z,49.25
2022-08-22T17:31:58.274Z,35.72
2022-08-22T17:34:43.063Z,36.65
2022-08-22T17:37:44.846Z,34.80
2022-08-22T17:40:35.079Z,41.75
2022-08-22T17:43:13.595Z,45.88
2022-08-22T17:45:44.897Z,55.08
2022-08-22T17:48:34.119Z,43.33
2022-08-22T17:51:32.147Z,43.47
2022-08-22T17:54:12.711Z,49.05
2022-08-22T17:57:00.460Z,40.80
2022-08-22T17:59:47.366Z,52.00
2022-08-22T18:02:28.635Z,39.22
2022-08-22T18:05:16.298Z,45.50
2022-08-22T18:07:58.812Z,40.78
2022-08-22T18:10:50.023Z,32.70
2022-08-22T18:13:42.501Z,45.08
2022-08-22T18:16:29.533Z,44.25
2022-08-22T18:19:28.669Z,50.72
2022-08-22T18:22:02.349Z,38.03
2022-08-22T18:24:36.215Z,32.95
2022-08-22T18:27:35.335Z,36.73
2022-08-22T18:30:29.770Z,50.78
2022-08-22T18:33:04.321Z,43.10
2022-08-22T18:35:50.008Z,46.28
2022-08-22T18:38:38.736Z,59.95
2022-08-22T18:41:15.534Z,45.35
2022-08-22T18:43:45.251Z,44.47
2022-08-22T18:46:46.863Z,64.38
2022-08-22T18:49:22.141Z,42.17
2022-08-22T18:52:16.922Z,36.88
2022-08-22T18:55:01.858Z,44.70
2022-08-22T18:57:47.181Z,36.85
2022-08-22T19:00:22.512Z,44.70
2022-08-22T19:03:03.516Z,42.85
2022-08-22T19:06:01.199Z,35.47
2022-08-22T19:08:42.292Z,44.35
2022-08-22T19:11:23.113Z,33.53
2022-08-22T19:14:08.130Z,49.15
2022-08-22T19:16:43.562Z,39.25
2022-08-22T19:19:58.045Z,46.42
2022-08-22T19:22:33.749Z,43.00
2022-08-22T19:25:15.318Z,41.95
2022-08-22T19:28:02.647Z,29.45
2022-08-22T19:30:50.105Z,36.92
2022-08-22T19:33:19.648Z,40.83
2022-08-22T19:35:54.319Z,38.13
2022-08-22T19:38:43.001Z,37.08
2022-08-22T19:41:09.565Z,37.97
2022-08-22T19:43:38.355Z,32.28
2022-08-22T19:46:08.851Z,32.13
2022-08-22T19:48:53.754Z,37.78
2022-08-22T19:51:20.410Z,35.60
2022-08-22T19:53:58.769Z,38.30
2022-08-22T19:56:43.629Z,30.98
2022-08-22T19:59:28.518Z,35.08
2022-08-22T20:02:18.378Z,32.10
2022-08-22T20:05:02.103Z,29.00
2022-08-22T20:07:41.958Z,28.85
2022-08-22T20:10:18.692Z,38.22
2022-08-22T20:13:01.273Z,34.00
2022-08-22T20:15:30.482Z,33.38
2022-08-22T20:18:47.241Z,25.80
2022-08-22T20:20:59.816Z,24.05
2022-08-22T20:23:30.962Z,21.95
2022-08-22T20:26:02.613Z,32.60
2022-08-22T20:28:39.275Z,33.05
2022-08-22T20:31:22.606Z,33.47
2022-08-22T20:34:02.698Z,26.85
2022-08-22T20:36:36.326Z,33.17
2022-08-22T20:39:20.695Z,30.48
2022-08-22T20:41:55.180Z,22.80
2022-08-22T20:44:31.574Z,29.58
2022-08-22T20:47:07.728Z,28.60
2022-08-22T20:49:51.367Z,29.92
2022-08-22T20:52:43.699Z,19.48
2022-08-22T20:55:35.834Z,30.92
2022-08-22T20:58:31.596Z,28.38
2022-08-22T21:01:01.655Z,26.20
2022-08-22T21:03:46.536Z,28.23
2022-08-22T21:06:20.071Z,25.45
2022-08-22T21:09:08.067Z,43.72
2022-08-22T21:11:40.285Z,24.05
2022-08-22T21:14:21.455Z,39.08
2022-08-22T21:16:48.264Z,29.33
2022-08-22T21:19:27.367Z,32.92
2022-08-22T21:21:54.411Z,27.58
2022-08-22T21:24:21.042Z,25.35
2022-08-22T21:26:59.125Z,29.00
2022-08-22T21:29:32.955Z,26.25
2022-08-22T21:32:11.546Z,26.17
2022-08-22T21:34:44.156Z,22.90
2022-08-22T21:37:23.914Z,23.02
2022-08-22T21:39:57.439Z,20.17
2022-08-22T21:42:33.332Z,24.85
2022-08-22T21:45:12.574Z,21.60
2022-08-22T21:47:41.560Z,25.95
2022-08-22T21:50:26.590Z,24.13
2022-08-22T21:52:56.373Z,35.75
2022-08-22T21:55:32.780Z,22.48
2022-08-22T21:58:34.915Z,23.83
2022-08-22T22:01:24.895Z,23.65
2022-08-22T22:03:51.704Z,27.15
2022-08-22T22:06:18.305Z,19.98
2022-08-22T22:08:44.902Z,19.48
2022-08-22T22:11:13.562Z,21.50
2022-08-22T22:13:40.709Z,21.50
2022-08-22T22:16:08.583Z,26.73
2022-08-22T22:18:36.081Z,25.30
2022-08-22T22:21:02.981Z,28.00
2022-08-22T22:23:29.596Z,20.27
2022-08-22T22:25:58.313Z,19.80
2022-08-22T22:28:29.782Z,17.40
2022-08-22T22:30:56.431Z,21.35
2022-08-22T22:33:28.599Z,25.27
2022-08-22T22:35:57.821Z,29.00
2022-08-22T22:38:25.443Z,21.33
2022-08-22T22:40:52.714Z,16.42
2022-08-22T22:43:19.370Z,20.27
2022-08-22T22:45:45.976Z,22.30
2022-08-22T22:48:18.129Z,15.07
2022-08-22T22:50:54.993Z,15.75
2022-08-22T22:53:33.844Z,14.13
2022-08-22T22:56:07.406Z,18.58
2022-08-22T22:58:36.546Z,23.60
2022-08-22T23:01:09.518Z,22.63
2022-08-22T23:03:36.229Z,22.50
2022-08-22T23:06:02.948Z,19.52
2022-08-22T23:08:29.577Z,19.73
2022-08-22T23:10:56.255Z,14.48
2022-08-22T23:13:22.882Z,21.05
2022-08-22T23:15:49.459Z,16.67
2022-08-22T23:18:16.149Z,17.48
2022-08-22T23:20:42.733Z,15.98
2022-08-22T23:23:09.399Z,16.83
2022-08-22T23:25:36.060Z,21.85
2022-08-22T23:28:03.017Z,18.35
2022-08-22T23:30:30.323Z,17.60
2022-08-22T23:32:57.074Z,16.23
2022-08-22T23:35:23.681Z,19.40
2022-08-22T23:37:50.272Z,12.90
2022-08-22T23:40:17.051Z,15.80
2022-08-22T23:42:43.790Z,17.67
2022-08-22T23:45:10.524Z,9.73
2022-08-22T23:47:37.087Z,14.98
2022-08-22T23:50:06.000Z,13.48
2022-08-22T23:52:33.357Z,14.95
2022-08-22T23:54:59.977Z,9.82
2022-08-22T23:57:27.781Z,14.88
2022-08-22T23:59:57.868Z,9.82
